UUDDUUDL

Guest
Details From UUDD - Moscou Domodedovo
To UUDL - Tunoshna
Flight Number -
Tags Generated
Created
Modified
Stats Distance 148 nm / 275 km
Max Altitude 0 ft / 0 m
Waypoints 2
Social Downloads 2
Likes 0
Share VATSIM

Download

Looking for another format? Having issues loading an existing format? Contact us
Advertisement - Login to hide

Notes

Generated

Route

UUDD UUDL

ID Type Via Altitude Latitude Longitude Leg Dist Tot Dist Heading (true) Name
O UUDD APT - 0 ft / 0 m 55.42000˚ 37.88000˚ - 0 nm - -
O UUDL APT - 0 ft / 0 m 57.55462˚ 40.13490˚ 148 nm 148 nm 29° / 31° -

Altitude Profile

Advertisement - Login to hide

UUDD

Details ICAO UUDD (DME)
Name Moscou Domodedovo
Region Russia
Timezone Europe/Moscow (UTC+3.0)
Stats Elevation 588 ft / 179 m (AMSL)
Location 55.409191° 37.901432°
Runways 3
Magnetic Variation 11.079° E

METAR

UUDD 221800Z 14003MPS 090V150 9999 FEW046 15/11 Q1025 R88/010095 NOSIG

Decode

TAF

TAF UUDD 221657Z 2218/2324 15005MPS 9999 SCT020 TX23/2313Z TN12/2301Z BECMG 2219/2221 VRB01MPS TEMPO 2223/2306 3100 BR SCT011 TEMPO 2308/2315 27005MPS

Decode

Departure Runways

ID Width Length Bearing (true) Bearing (mag) Surface Threshold Offset Overrun Length
14C 148 ft / 45 m 8,754 ft / 2,668 m 146.47° 135.39° Concrete 0 ft / 0 m 0 ft / 0 m
14L 174 ft / 53 m 12,382 ft / 3,774 m 145.59° 134.51° Concrete 0 ft / 0 m 0 ft / 0 m
14R 230 ft / 70 m 11,395 ft / 3,473 m 145.45° 134.37° Concrete 0 ft / 0 m 0 ft / 0 m
32C 148 ft / 45 m 8,754 ft / 2,668 m 326.49° 315.41° Concrete 0 ft / 0 m 0 ft / 0 m
32L 230 ft / 70 m 11,395 ft / 3,473 m 325.48° 314.40° Concrete 0 ft / 0 m 0 ft / 0 m
32R 174 ft / 53 m 12,382 ft / 3,774 m 325.61° 314.53° Concrete 0 ft / 0 m 0 ft / 0 m

UUDL

Details ICAO UUDL (IAR)
Name TUNOSHNA
Region Russia
Timezone Europe/Moscow (UTC+3.0)
Stats Elevation 305 ft / 93 m (AMSL)
Location 57.560668° 40.157367°
Runways 1
Magnetic Variation 12.681° E

METAR

UUDL 221800Z 16002MPS CAVOK 19/06 Q1025 R23/010060 NOSIG RMK QFE760

Decode

TAF

TAF UUDL 221655Z 2218/2318 24003MPS 9999 BKN040

Decode

Destination Runways

ID Width Length Bearing (true) Bearing (mag) Surface Threshold Offset Overrun Length
05 144 ft / 44 m 9,842 ft / 3,000 m 63.33° 50.65° Asphalt 0 ft / 0 m 160 ft / 49 m
23 144 ft / 44 m 9,842 ft / 3,000 m 243.37° 230.69° Asphalt 0 ft / 0 m 150 ft / 46 m

Approach Navaids

Runway Type Ident Frequency Range Bearing (true) Bearing (mag) Slope Elevation
23 Localiser IRG 110.50 MHz 18 nm / 33 km 244.13° 231.45° - 305 ft / 93 m (AMSL)
23 Glidescope IRG 110.50 MHz 10 nm / 19 km 243.35° 230.67° 3.00° 305 ft / 93 m (AMSL)

Popular Alternatives